Startpagina
METAR-TAF:

METAR-TAF

Vliegvelden :

Aeroporto di Bergamo-Orio al Serio

Bergamo, Italië

breedte: 45-40N, lengte: 009-42E, hoogte: 238 m

Actueel weer

Dit bericht is 18 minuten geleden gemaakt, om 19:20 UTC
Wind 3 kt uit het noordoosten
Temperatuur 17°C
Vochtigheid 68%
Druk 1014 hPa
Zicht 10 km of meer
geen wolken onder 1500 m en geen cumulonimbus

METAR: LIME 311920Z 05003KT CAVOK 17/11 Q1014 NOSIG

Tijdstip: 21:38 (19:38 UTC)

Verwachting

Dit bericht is 2 uur en het 38 minuten geleden gemaakt, om 17:00 UTC
Verwachting geldig van 31 om 18 UTC tot 01 om 18 UTC
Wind 5 kt uit variabele richting
Zicht 10 km of meer
Gebroken wolken op 5000 ft

TAF: LIME 311700Z 3118/0118 VRB05KT 9999 BKN050

Waarnemingen en weersverwachtingen van meer dan 4000 vliegvelden (METAR en TAF).

De beschikbare stations zijn de gele en rode punten op de kaart.

Ga met uw muis naar het station om de naam te zien.

Klik dan om waarnemingen en weersverwachtingen te zien.

kaart wijzigen: klik op de groene knoppen met een zwart kruis om in te zoomen, op de groene knop met een streepje om uit te zoomen of op de groene pijlen voor aangrenzende kaarten.


METAR-TAF: